createdAt,value
2023-03-24T00:02:03.384Z,20.03
2023-03-24T00:04:31.889Z,20.11
2023-03-24T00:07:03.439Z,20.13
2023-03-24T00:09:32.324Z,20.17
2023-03-24T00:12:01.023Z,20.08
2023-03-24T00:14:30.745Z,20.05
2023-03-24T00:16:59.802Z,20.03
2023-03-24T00:19:28.336Z,20.03
2023-03-24T00:21:56.747Z,20.04
2023-03-24T00:24:27.279Z,20.07
2023-03-24T00:26:57.622Z,20.02
2023-03-24T00:29:26.429Z,20.04
2023-03-24T00:31:55.442Z,19.97
2023-03-24T00:34:24.054Z,19.85
2023-03-24T00:36:53.074Z,19.95
2023-03-24T00:39:21.993Z,19.97
2023-03-24T00:41:51.837Z,19.84
2023-03-24T00:44:20.282Z,19.88
2023-03-24T00:46:55.514Z,19.83
2023-03-24T00:49:42.152Z,19.83
2023-03-24T00:52:11.249Z,19.87
2023-03-24T00:54:40.287Z,19.86
2023-03-24T00:57:12.881Z,19.82
2023-03-24T00:59:48.551Z,19.75
2023-03-24T01:02:19.358Z,19.74
2023-03-24T01:04:47.788Z,19.69
2023-03-24T01:07:18.196Z,19.62
2023-03-24T01:09:51.835Z,19.64
2023-03-24T01:12:22.034Z,19.67
2023-03-24T01:14:50.416Z,19.70
2023-03-24T01:17:19.814Z,19.72
2023-03-24T01:19:48.154Z,19.67
2023-03-24T01:22:18.016Z,19.63
2023-03-24T01:24:46.432Z,19.57
2023-03-24T01:27:14.986Z,19.55
2023-03-24T01:29:44.741Z,19.58
2023-03-24T01:32:13.056Z,19.42
2023-03-24T01:34:41.691Z,19.46
2023-03-24T01:37:09.981Z,19.49
2023-03-24T01:39:38.364Z,19.52
2023-03-24T01:42:07.157Z,19.58
2023-03-24T01:44:37.065Z,19.62
2023-03-24T01:47:08.521Z,19.64
2023-03-24T01:49:39.858Z,19.73
2023-03-24T01:52:12.089Z,19.79
2023-03-24T01:54:49.035Z,19.82
2023-03-24T01:57:23.004Z,19.78
2023-03-24T01:59:55.450Z,19.74
2023-03-24T02:02:25.242Z,19.73
2023-03-24T02:04:56.030Z,19.75
2023-03-24T02:07:33.266Z,19.71
2023-03-24T02:10:02.246Z,19.82
2023-03-24T02:12:30.862Z,19.85
2023-03-24T02:14:59.704Z,19.85
2023-03-24T02:17:49.180Z,19.89
2023-03-24T02:20:32.650Z,19.80
2023-03-24T02:23:27.887Z,19.87
2023-03-24T02:26:27.509Z,19.60
2023-03-24T02:29:03.569Z,18.47
2023-03-24T02:31:54.568Z,19.08
2023-03-24T02:34:52.256Z,19.29
2023-03-24T02:38:03.868Z,19.34
2023-03-24T02:40:39.388Z,19.39
2023-03-24T02:43:19.252Z,19.35
2023-03-24T02:45:57.756Z,19.49
2023-03-24T02:48:33.814Z,19.58
2023-03-24T02:51:08.472Z,19.62
2023-03-24T02:53:44.056Z,19.53
2023-03-24T02:56:16.392Z,19.53
2023-03-24T02:58:49.643Z,19.65
2023-03-24T03:01:32.180Z,19.79
2023-03-24T03:04:03.327Z,19.83
2023-03-24T03:06:34.977Z,19.92
2023-03-24T03:09:07.706Z,19.94
2023-03-24T03:11:38.549Z,19.86
2023-03-24T03:14:09.277Z,19.86
2023-03-24T03:16:41.074Z,19.84
2023-03-24T03:19:13.415Z,19.84
2023-03-24T03:21:44.088Z,19.82
2023-03-24T03:24:15.385Z,19.81
2023-03-24T03:26:47.293Z,19.76
2023-03-24T03:29:17.778Z,19.73
2023-03-24T03:31:50.932Z,19.76
2023-03-24T03:34:23.647Z,19.81
2023-03-24T03:36:56.114Z,19.75
2023-03-24T03:39:29.574Z,19.36
2023-03-24T03:41:59.434Z,19.35
2023-03-24T03:44:27.881Z,18.95
2023-03-24T03:46:57.217Z,18.83
2023-03-24T03:49:25.812Z,18.81
2023-03-24T03:51:55.825Z,19.05
2023-03-24T03:54:25.804Z,19.10
2023-03-24T03:56:54.878Z,19.06
2023-03-24T03:59:29.844Z,18.96
2023-03-24T04:01:58.816Z,18.98
2023-03-24T04:05:03.129Z,19.15
2023-03-24T04:07:38.410Z,19.10
2023-03-24T04:10:15.493Z,19.15
2023-03-24T04:12:57.659Z,19.15
2023-03-24T04:15:35.777Z,19.17
2023-03-24T04:18:23.612Z,19.16
2023-03-24T04:20:58.774Z,19.10
2023-03-24T04:23:32.150Z,19.08
2023-03-24T04:26:06.818Z,19.06
2023-03-24T04:28:40.900Z,19.06
2023-03-24T04:31:14.461Z,19.09
2023-03-24T04:33:48.693Z,19.08
2023-03-24T04:36:22.437Z,19.10
2023-03-24T04:38:53.265Z,19.09
2023-03-24T04:41:22.440Z,19.11
2023-03-24T04:43:51.433Z,19.15
2023-03-24T04:46:21.693Z,19.21
2023-03-24T04:48:50.152Z,19.24
2023-03-24T04:51:19.772Z,19.30
2023-03-24T04:53:48.562Z,19.30
2023-03-24T04:56:30.332Z,19.31
2023-03-24T04:58:59.005Z,19.38
2023-03-24T05:01:30.233Z,19.43
2023-03-24T05:03:58.985Z,19.44
2023-03-24T05:06:27.792Z,19.46
2023-03-24T05:08:58.783Z,19.42
2023-03-24T05:11:27.692Z,19.17
2023-03-24T05:13:56.469Z,19.36
2023-03-24T05:16:24.769Z,19.33
2023-03-24T05:18:54.454Z,19.35
2023-03-24T05:21:22.771Z,19.36
2023-03-24T05:23:51.093Z,19.38
2023-03-24T05:26:19.329Z,19.33
2023-03-24T05:28:47.580Z,19.38
2023-03-24T05:31:16.233Z,19.30
2023-03-24T05:33:44.545Z,19.43
2023-03-24T05:36:14.311Z,19.55
2023-03-24T05:38:42.605Z,19.55
2023-03-24T05:41:10.975Z,19.56
2023-03-24T05:43:39.195Z,19.50
2023-03-24T05:46:08.225Z,19.52
2023-03-24T05:48:36.510Z,19.60
2023-03-24T05:51:04.899Z,19.28
2023-03-24T05:53:34.485Z,19.56
2023-03-24T05:56:03.135Z,19.61
2023-03-24T05:58:34.631Z,19.70
2023-03-24T06:01:08.222Z,19.78
2023-03-24T06:03:38.885Z,19.79
2023-03-24T06:06:09.713Z,19.88
2023-03-24T06:08:39.154Z,19.92
2023-03-24T06:11:07.643Z,20.00
2023-03-24T06:13:36.416Z,20.06
2023-03-24T06:16:04.785Z,20.08
2023-03-24T06:18:33.595Z,20.09
2023-03-24T06:21:01.903Z,20.10
2023-03-24T06:23:30.298Z,19.85
2023-03-24T06:26:01.287Z,19.73
2023-03-24T06:28:30.450Z,19.60
2023-03-24T06:30:59.398Z,19.54
2023-03-24T06:33:27.759Z,19.48
2023-03-24T06:35:56.079Z,19.36
2023-03-24T06:38:24.441Z,19.36
2023-03-24T06:40:52.686Z,19.50
2023-03-24T06:43:22.370Z,19.47
2023-03-24T06:45:50.681Z,19.37
2023-03-24T06:48:19.062Z,19.53
2023-03-24T06:50:47.324Z,19.67
2023-03-24T06:53:15.845Z,19.76
2023-03-24T06:55:44.310Z,19.84
2023-03-24T06:58:15.015Z,19.93
2023-03-24T07:00:44.848Z,19.98
2023-03-24T07:03:14.372Z,20.11
2023-03-24T07:05:44.653Z,20.14
2023-03-24T07:10:44.948Z,20.26
2023-03-24T07:13:13.299Z,20.34
2023-03-24T07:15:41.682Z,20.43
2023-03-24T07:18:11.519Z,20.54
2023-03-24T07:20:39.888Z,20.59
2023-03-24T07:23:08.666Z,20.63
2023-03-24T07:25:36.948Z,20.63
2023-03-24T07:28:05.564Z,20.64
2023-03-24T07:30:40.231Z,20.60
2023-03-24T07:33:12.102Z,20.68
2023-03-24T07:35:40.539Z,20.72
2023-03-24T07:38:10.217Z,20.68
2023-03-24T07:40:39.069Z,20.66
2023-03-24T07:43:07.354Z,20.63
2023-03-24T07:45:35.952Z,20.53
2023-03-24T07:48:04.473Z,20.46
2023-03-24T07:50:34.345Z,20.46
2023-03-24T07:53:02.678Z,19.83
2023-03-24T07:55:30.876Z,19.76
2023-03-24T07:57:59.117Z,20.22
2023-03-24T08:00:29.198Z,19.51
2023-03-24T08:02:58.017Z,19.93
2023-03-24T08:05:27.801Z,20.18
2023-03-24T08:07:58.522Z,20.25
2023-03-24T08:10:29.189Z,20.32
2023-03-24T08:12:57.761Z,20.29
2023-03-24T08:15:27.430Z,20.34
2023-03-24T08:17:56.768Z,20.45
2023-03-24T08:20:27.332Z,20.21
2023-03-24T08:22:56.954Z,20.28
2023-03-24T08:25:26.736Z,20.45
2023-03-24T08:27:55.090Z,20.49
2023-03-24T08:30:24.710Z,20.52
2023-03-24T08:32:54.405Z,20.21
2023-03-24T08:35:25.359Z,20.34
2023-03-24T08:37:53.978Z,20.21
2023-03-24T08:40:24.925Z,20.13
2023-03-24T08:42:54.773Z,19.76
2023-03-24T08:45:27.449Z,19.71
2023-03-24T08:47:57.063Z,19.92
2023-03-24T08:50:28.073Z,19.78
2023-03-24T08:52:57.367Z,19.79
2023-03-24T08:55:27.145Z,19.86
2023-03-24T08:57:56.027Z,19.97
2023-03-24T09:00:25.660Z,19.78
2023-03-24T09:02:55.712Z,19.96
2023-03-24T09:05:40.735Z,20.13
2023-03-24T09:08:10.261Z,20.20
2023-03-24T09:10:40.621Z,20.30
2023-03-24T09:13:08.952Z,20.45
2023-03-24T09:15:37.440Z,20.56
2023-03-24T09:18:06.557Z,20.73
2023-03-24T09:20:36.442Z,20.89
2023-03-24T09:23:04.751Z,21.01
2023-03-24T09:25:33.066Z,20.93
2023-03-24T09:28:03.272Z,21.05
2023-03-24T09:30:33.293Z,20.80
2023-03-24T09:33:03.127Z,21.01
2023-03-24T09:35:31.463Z,20.89
2023-03-24T09:37:59.924Z,20.69
2023-03-24T09:40:30.064Z,20.74
2023-03-24T09:43:04.211Z,19.63
2023-03-24T09:45:38.227Z,19.78
2023-03-24T09:48:10.049Z,19.21
2023-03-24T09:50:41.623Z,19.23
2023-03-24T09:53:16.746Z,19.20
2023-03-24T09:55:45.641Z,19.15
2023-03-24T09:58:15.423Z,19.10
2023-03-24T10:00:44.340Z,19.15
2023-03-24T10:03:16.336Z,19.09
2023-03-24T10:05:48.239Z,19.15
2023-03-24T10:08:19.091Z,19.11
2023-03-24T10:10:50.018Z,19.14
2023-03-24T10:13:23.012Z,18.82
2023-03-24T10:16:04.821Z,18.85
2023-03-24T10:18:39.206Z,18.88
2023-03-24T10:21:15.266Z,18.77
2023-03-24T10:23:49.749Z,19.11
2023-03-24T10:26:30.585Z,19.20
2023-03-24T10:29:10.958Z,18.92
2023-03-24T10:31:40.029Z,18.91
2023-03-24T10:34:11.887Z,18.92
2023-03-24T10:36:41.165Z,18.95
2023-03-24T10:39:19.614Z,19.19
2023-03-24T10:41:51.907Z,19.33
2023-03-24T10:44:22.486Z,19.26
2023-03-24T10:46:50.991Z,19.61
2023-03-24T10:49:21.020Z,19.33
2023-03-24T10:51:50.611Z,19.33
2023-03-24T10:54:21.110Z,19.68
2023-03-24T10:56:50.477Z,19.54
2023-03-24T10:59:27.367Z,19.89
2023-03-24T11:02:04.153Z,20.08
2023-03-24T11:04:33.760Z,19.45
2023-03-24T11:07:07.303Z,19.30
2023-03-24T11:09:42.354Z,19.72
2023-03-24T11:12:23.708Z,19.85
2023-03-24T11:15:10.465Z,19.91
2023-03-24T11:17:47.059Z,20.02
2023-03-24T11:20:20.787Z,20.32
2023-03-24T11:22:57.890Z,20.13
2023-03-24T11:25:33.347Z,20.00
2023-03-24T11:28:04.025Z,20.54
2023-03-24T11:30:38.606Z,20.63
2023-03-24T11:33:07.300Z,20.26
2023-03-24T11:35:41.831Z,20.27
2023-03-24T11:38:17.890Z,20.78
2023-03-24T11:40:58.866Z,20.92
2023-03-24T11:43:28.243Z,20.87
2023-03-24T11:46:01.184Z,21.67
2023-03-24T11:48:35.195Z,21.90
2023-03-24T11:51:05.734Z,22.41
2023-03-24T11:53:41.959Z,23.14
2023-03-24T11:56:14.298Z,23.10
2023-03-24T11:58:47.372Z,22.97
2023-03-24T12:01:24.737Z,23.60
2023-03-24T12:04:20.872Z,23.55
2023-03-24T12:07:00.459Z,23.58
2023-03-24T12:09:32.779Z,23.46
2023-03-24T12:12:11.985Z,24.10
2023-03-24T12:14:52.148Z,23.79
2023-03-24T12:17:24.908Z,23.89
2023-03-24T12:20:17.288Z,24.55
2023-03-24T12:22:55.956Z,24.39
2023-03-24T12:25:49.345Z,24.29
2023-03-24T12:28:32.352Z,24.75
2023-03-24T12:31:11.429Z,24.55
2023-03-24T12:33:50.485Z,24.71
2023-03-24T12:36:34.949Z,24.50
2023-03-24T12:39:09.634Z,24.86
2023-03-24T12:41:57.893Z,24.67
2023-03-24T12:44:49.345Z,24.30
2023-03-24T12:47:28.065Z,23.24
2023-03-24T12:50:18.403Z,23.61
2023-03-24T12:53:07.809Z,23.82
2023-03-24T12:55:41.987Z,24.02
2023-03-24T12:58:15.899Z,23.55
2023-03-24T13:00:47.205Z,23.50
2023-03-24T13:03:17.629Z,22.93
2023-03-24T13:05:48.641Z,23.12
2023-03-24T13:08:29.609Z,22.64
2023-03-24T13:11:02.449Z,23.10
2023-03-24T13:13:33.243Z,22.65
2023-03-24T13:16:02.883Z,23.09
2023-03-24T13:18:32.673Z,23.04
2023-03-24T13:21:05.744Z,22.98
2023-03-24T13:23:47.369Z,22.27
2023-03-24T13:26:21.987Z,22.58
2023-03-24T13:28:58.845Z,22.20
2023-03-24T13:31:28.681Z,22.57
2023-03-24T13:33:57.255Z,22.51
2023-03-24T13:36:37.104Z,22.65
2023-03-24T13:39:08.450Z,22.55
2023-03-24T13:41:39.699Z,22.55
2023-03-24T13:44:10.182Z,22.23
2023-03-24T13:46:38.369Z,22.15
2023-03-24T13:49:08.464Z,21.88
2023-03-24T13:51:42.382Z,21.97
2023-03-24T13:54:15.721Z,22.15
2023-03-24T13:56:50.638Z,22.31
2023-03-24T13:59:30.605Z,22.24
2023-03-24T14:02:24.002Z,22.53
2023-03-24T14:05:04.822Z,21.91
2023-03-24T14:07:50.472Z,21.80
2023-03-24T14:10:40.260Z,22.57
2023-03-24T14:13:21.570Z,22.50
2023-03-24T14:15:51.665Z,22.83
2023-03-24T14:18:42.732Z,22.74
2023-03-24T14:21:11.319Z,22.57
2023-03-24T14:23:43.351Z,22.48
2023-03-24T14:26:14.599Z,22.80
2023-03-24T14:28:43.534Z,22.10
2023-03-24T14:31:25.467Z,22.47
2023-03-24T14:34:10.871Z,22.26
2023-03-24T14:36:40.693Z,22.58
2023-03-24T14:39:18.706Z,22.55
2023-03-24T14:41:51.843Z,22.50
2023-03-24T14:44:53.549Z,21.80
2023-03-24T14:47:23.043Z,21.96
2023-03-24T14:49:53.177Z,21.53
2023-03-24T14:52:25.458Z,21.18
2023-03-24T14:54:57.889Z,20.63
2023-03-24T14:57:28.165Z,21.41
2023-03-24T15:00:01.113Z,20.65
2023-03-24T15:02:34.386Z,20.71
2023-03-24T15:05:22.506Z,21.20
2023-03-24T15:08:08.448Z,20.67
2023-03-24T15:10:44.894Z,20.97
2023-03-24T15:13:40.701Z,20.98
2023-03-24T15:16:19.237Z,20.57
2023-03-24T15:18:59.756Z,20.50
2023-03-24T15:21:33.887Z,20.08
2023-03-24T15:24:03.047Z,20.27
2023-03-24T15:26:33.278Z,20.22
2023-03-24T15:29:03.930Z,20.05
2023-03-24T15:31:32.296Z,20.14
2023-03-24T15:34:06.305Z,19.70
2023-03-24T15:36:45.678Z,19.82
2023-03-24T15:39:21.888Z,19.94
2023-03-24T15:41:53.798Z,19.70
2023-03-24T15:44:24.987Z,19.61
2023-03-24T15:46:56.216Z,19.72
2023-03-24T15:49:27.817Z,19.44
2023-03-24T15:51:59.996Z,19.90
2023-03-24T15:54:30.676Z,19.82
2023-03-24T15:57:16.573Z,19.65
2023-03-24T15:59:47.726Z,19.45
2023-03-24T16:02:25.186Z,19.74
2023-03-24T16:05:07.828Z,19.94
2023-03-24T16:07:40.866Z,20.18
2023-03-24T16:10:27.529Z,19.75
2023-03-24T16:12:57.319Z,19.10
2023-03-24T16:15:25.722Z,19.44
2023-03-24T16:17:54.130Z,19.38
2023-03-24T16:20:23.339Z,19.59
2023-03-24T16:22:51.646Z,19.43
2023-03-24T16:25:19.993Z,19.28
2023-03-24T16:27:48.275Z,19.27
2023-03-24T16:30:24.885Z,19.01
2023-03-24T16:32:53.170Z,18.47
2023-03-24T16:35:21.548Z,18.82
2023-03-24T16:37:50.574Z,18.91
2023-03-24T16:40:23.480Z,19.45
2023-03-24T16:42:51.831Z,19.33
2023-03-24T16:45:21.449Z,19.08
2023-03-24T16:47:49.828Z,19.01
2023-03-24T16:50:27.341Z,18.84
2023-03-24T16:52:55.695Z,19.06
2023-03-24T16:55:24.074Z,19.06
2023-03-24T16:57:52.508Z,19.26
2023-03-24T17:00:23.701Z,19.35
2023-03-24T17:02:53.952Z,19.13
2023-03-24T17:05:24.462Z,19.07
2023-03-24T17:07:52.826Z,19.40
2023-03-24T17:10:22.467Z,19.18
2023-03-24T17:12:51.411Z,19.25
2023-03-24T17:15:23.649Z,19.44
2023-03-24T17:17:52.233Z,19.34
2023-03-24T17:20:21.604Z,19.15
2023-03-24T17:22:51.454Z,19.14
2023-03-24T17:25:22.359Z,19.42
2023-03-24T17:27:51.613Z,18.79
2023-03-24T17:30:21.877Z,19.07
2023-03-24T17:32:51.884Z,18.98
2023-03-24T17:35:21.372Z,19.05
2023-03-24T17:37:51.213Z,19.00
2023-03-24T17:40:20.743Z,19.09
2023-03-24T17:42:50.168Z,18.96
2023-03-24T17:45:20.380Z,18.67
2023-03-24T17:47:48.779Z,18.96
2023-03-24T17:50:18.435Z,19.23
2023-03-24T17:52:49.113Z,18.81
2023-03-24T17:55:18.096Z,19.24
2023-03-24T17:57:46.354Z,19.03
2023-03-24T18:00:16.396Z,18.79
2023-03-24T18:02:45.707Z,18.64
2023-03-24T18:05:15.891Z,18.65
2023-03-24T18:07:45.716Z,18.70
2023-03-24T18:10:15.164Z,18.70
2023-03-24T18:12:43.457Z,18.31
2023-03-24T18:15:12.624Z,18.00
2023-03-24T18:17:40.978Z,18.63
2023-03-24T18:20:12.210Z,18.15
2023-03-24T18:22:40.987Z,18.47
2023-03-24T18:25:13.761Z,18.09
2023-03-24T18:27:42.564Z,17.95
2023-03-24T18:30:13.948Z,18.22
2023-03-24T18:32:43.016Z,18.08
2023-03-24T18:35:16.267Z,18.38
2023-03-24T18:37:45.539Z,18.19
2023-03-24T18:40:15.753Z,18.50
2023-03-24T18:42:44.122Z,18.09
2023-03-24T18:45:17.394Z,17.50
2023-03-24T18:47:46.128Z,17.62
2023-03-24T18:50:14.943Z,18.11
2023-03-24T18:52:43.198Z,18.03
2023-03-24T18:55:11.726Z,18.05
2023-03-24T18:57:41.400Z,18.35
2023-03-24T19:00:13.041Z,17.74
2023-03-24T19:02:41.407Z,17.78
2023-03-24T19:05:10.824Z,18.12
2023-03-24T19:07:39.048Z,18.52
2023-03-24T19:10:08.583Z,18.39
2023-03-24T19:12:36.803Z,18.08
2023-03-24T19:15:07.686Z,17.92
2023-03-24T19:17:36.232Z,17.88
2023-03-24T19:20:07.321Z,18.04
2023-03-24T19:22:35.897Z,17.92
2023-03-24T19:25:04.326Z,17.77
2023-03-24T19:27:32.542Z,17.94
2023-03-24T19:30:04.800Z,17.81
2023-03-24T19:32:34.456Z,18.20
2023-03-24T19:35:04.094Z,18.05
2023-03-24T19:37:32.924Z,18.29
2023-03-24T19:40:01.647Z,17.99
2023-03-24T19:42:33.249Z,17.66
2023-03-24T19:45:01.640Z,17.41
2023-03-24T19:47:29.935Z,17.53
2023-03-24T19:49:59.582Z,17.09
2023-03-24T19:52:28.120Z,17.23
2023-03-24T19:54:56.339Z,17.18
2023-03-24T19:57:25.111Z,17.51
2023-03-24T19:59:53.351Z,17.49
2023-03-24T20:02:21.847Z,17.81
2023-03-24T20:04:50.807Z,17.84
2023-03-24T20:07:20.554Z,17.14
2023-03-24T20:09:48.929Z,17.54
2023-03-24T20:12:17.277Z,17.51
2023-03-24T20:14:45.820Z,17.82
2023-03-24T20:17:18.501Z,17.32
2023-03-24T20:19:47.624Z,17.13
2023-03-24T20:22:16.281Z,17.21
2023-03-24T20:24:48.010Z,17.10
2023-03-24T20:27:17.285Z,17.52
2023-03-24T20:29:46.395Z,17.35
2023-03-24T20:32:15.581Z,17.08
2023-03-24T20:34:44.062Z,17.02
2023-03-24T20:37:12.342Z,17.32
2023-03-24T20:39:43.468Z,16.98
2023-03-24T20:42:13.211Z,17.07
2023-03-24T20:44:41.643Z,17.06
2023-03-24T20:47:10.013Z,17.18
2023-03-24T20:49:38.410Z,17.32
2023-03-24T20:52:06.832Z,17.40
2023-03-24T20:54:35.379Z,17.51
2023-03-24T20:57:03.781Z,17.56
2023-03-24T20:59:33.501Z,17.67
2023-03-24T21:02:01.921Z,17.33
2023-03-24T21:04:30.264Z,17.11
2023-03-24T21:06:58.598Z,16.93
2023-03-24T21:09:27.631Z,16.83
2023-03-24T21:11:55.960Z,16.66
2023-03-24T21:14:24.597Z,16.67
2023-03-24T21:16:54.269Z,16.73
2023-03-24T21:19:22.886Z,16.67
2023-03-24T21:21:51.262Z,16.38
2023-03-24T21:24:19.638Z,16.52
2023-03-24T21:26:49.516Z,16.60
2023-03-24T21:29:18.169Z,16.21
2023-03-24T21:31:46.584Z,16.33
2023-03-24T21:34:16.553Z,16.63
2023-03-24T21:36:46.059Z,16.48
2023-03-24T21:39:14.363Z,16.49
2023-03-24T21:41:42.817Z,16.55
2023-03-24T21:44:11.247Z,16.37
2023-03-24T21:46:39.630Z,16.48
2023-03-24T21:49:10.933Z,16.43
2023-03-24T21:51:42.760Z,16.45
2023-03-24T21:54:14.719Z,16.21
2023-03-24T21:56:43.142Z,16.14
2023-03-24T21:59:11.724Z,16.34
2023-03-24T22:01:40.093Z,15.89
2023-03-24T22:04:08.830Z,16.30
2023-03-24T22:06:38.620Z,16.32
2023-03-24T22:09:10.384Z,16.34
2023-03-24T22:11:42.590Z,16.23
2023-03-24T22:14:12.466Z,16.26
2023-03-24T22:16:40.958Z,16.17
2023-03-24T22:19:09.278Z,16.16
2023-03-24T22:21:39.515Z,16.08
2023-03-24T22:24:09.422Z,16.35
2023-03-24T22:26:37.657Z,16.28
2023-03-24T22:29:06.106Z,16.12
2023-03-24T22:31:34.389Z,16.08
2023-03-24T22:34:02.754Z,15.81
2023-03-24T22:36:31.340Z,16.10
2023-03-24T22:38:59.626Z,15.94
2023-03-24T22:41:29.366Z,15.98
2023-03-24T22:43:57.637Z,15.92
2023-03-24T22:46:26.049Z,16.06
2023-03-24T22:48:54.496Z,15.70
2023-03-24T22:51:22.749Z,15.80
2023-03-24T22:53:51.388Z,16.19
2023-03-24T22:56:19.754Z,16.02
2023-03-24T22:58:49.673Z,16.34
2023-03-24T23:01:18.346Z,16.32
2023-03-24T23:03:46.860Z,16.58
2023-03-24T23:06:15.880Z,16.17
2023-03-24T23:08:45.015Z,16.18
2023-03-24T23:11:13.342Z,16.53
2023-03-24T23:13:41.638Z,15.99
2023-03-24T23:16:12.623Z,16.29
2023-03-24T23:18:41.084Z,16.59
2023-03-24T23:21:11.017Z,16.28
2023-03-24T23:23:40.803Z,16.38
2023-03-24T23:26:25.813Z,16.83
2023-03-24T23:28:55.324Z,16.46
2023-03-24T23:31:27.063Z,16.15
2023-03-24T23:33:57.096Z,16.52
2023-03-24T23:36:28.204Z,16.56
2023-03-24T23:38:56.828Z,16.66
2023-03-24T23:41:25.528Z,16.15
2023-03-24T23:43:54.190Z,16.50
2023-03-24T23:46:24.832Z,16.23
2023-03-24T23:48:53.321Z,15.97
2023-03-24T23:51:22.201Z,15.94
2023-03-24T23:53:50.828Z,15.90
2023-03-24T23:56:21.730Z,16.05
2023-03-24T23:58:50.103Z,16.10
